sensor_id;sensor_type;location;lat;lon;timestamp;P1;durP1;ratioP1;P2;durP2;ratioP2
46391;SDS011;32098;49.448;7.904;2022-11-20T00:01:25;5.60;;;3.83;;
46391;SDS011;32098;49.448;7.904;2022-11-20T00:03:54;4.43;;;3.17;;
46391;SDS011;32098;49.448;7.904;2022-11-20T00:06:22;4.43;;;3.60;;
46391;SDS011;32098;49.448;7.904;2022-11-20T00:08:49;5.27;;;3.33;;
46391;SDS011;32098;49.448;7.904;2022-11-20T00:11:18;5.23;;;3.47;;
46391;SDS011;32098;49.448;7.904;2022-11-20T00:13:46;5.93;;;4.10;;
46391;SDS011;32098;49.448;7.904;2022-11-20T00:16:15;5.83;;;3.97;;
46391;SDS011;32098;49.448;7.904;2022-11-20T00:18:44;8.07;;;4.20;;
46391;SDS011;32098;49.448;7.904;2022-11-20T00:21:15;5.07;;;3.90;;
46391;SDS011;32098;49.448;7.904;2022-11-20T00:23:44;7.00;;;4.80;;
46391;SDS011;32098;49.448;7.904;2022-11-20T00:26:11;5.73;;;4.70;;
46391;SDS011;32098;49.448;7.904;2022-11-20T00:28:40;6.63;;;4.77;;
46391;SDS011;32098;49.448;7.904;2022-11-20T00:31:12;9.40;;;5.53;;
46391;SDS011;32098;49.448;7.904;2022-11-20T00:33:40;7.67;;;5.50;;
46391;SDS011;32098;49.448;7.904;2022-11-20T00:36:08;7.47;;;5.63;;
46391;SDS011;32098;49.448;7.904;2022-11-20T00:38:37;6.60;;;4.63;;
46391;SDS011;32098;49.448;7.904;2022-11-20T00:41:04;6.73;;;4.73;;
46391;SDS011;32098;49.448;7.904;2022-11-20T00:43:33;6.27;;;4.70;;
46391;SDS011;32098;49.448;7.904;2022-11-20T00:46:00;5.70;;;4.60;;
46391;SDS011;32098;49.448;7.904;2022-11-20T00:48:27;6.67;;;4.40;;
46391;SDS011;32098;49.448;7.904;2022-11-20T00:50:54;6.23;;;4.60;;
46391;SDS011;32098;49.448;7.904;2022-11-20T00:53:21;6.17;;;4.27;;
46391;SDS011;32098;49.448;7.904;2022-11-20T00:55:55;7.67;;;4.60;;
46391;SDS011;32098;49.448;7.904;2022-11-20T00:58:23;6.83;;;4.30;;
46391;SDS011;32098;49.448;7.904;2022-11-20T01:00:59;6.93;;;5.13;;
46391;SDS011;32098;49.448;7.904;2022-11-20T01:03:27;6.60;;;4.70;;
46391;SDS011;32098;49.448;7.904;2022-11-20T01:05:53;6.00;;;4.57;;
46391;SDS011;32098;49.448;7.904;2022-11-20T01:08:20;9.13;;;5.83;;
46391;SDS011;32098;49.448;7.904;2022-11-20T01:10:46;9.63;;;5.90;;
46391;SDS011;32098;49.448;7.904;2022-11-20T01:13:12;8.93;;;5.87;;
46391;SDS011;32098;49.448;7.904;2022-11-20T01:16:01;8.27;;;5.60;;
46391;SDS011;32098;49.448;7.904;2022-11-20T01:18:36;9.67;;;5.97;;
46391;SDS011;32098;49.448;7.904;2022-11-20T01:21:04;9.50;;;6.13;;
46391;SDS011;32098;49.448;7.904;2022-11-20T01:23:33;9.63;;;5.80;;
46391;SDS011;32098;49.448;7.904;2022-11-20T01:26:02;10.80;;;6.70;;
46391;SDS011;32098;49.448;7.904;2022-11-20T01:28:30;9.90;;;6.60;;
46391;SDS011;32098;49.448;7.904;2022-11-20T01:30:57;12.73;;;7.27;;
46391;SDS011;32098;49.448;7.904;2022-11-20T01:33:24;10.37;;;6.40;;
46391;SDS011;32098;49.448;7.904;2022-11-20T01:35:51;12.53;;;7.03;;
46391;SDS011;32098;49.448;7.904;2022-11-20T01:38:18;14.37;;;7.10;;
46391;SDS011;32098;49.448;7.904;2022-11-20T01:40:53;14.30;;;7.27;;
46391;SDS011;32098;49.448;7.904;2022-11-20T01:43:20;13.53;;;7.30;;
46391;SDS011;32098;49.448;7.904;2022-11-20T01:46:03;11.23;;;6.80;;
46391;SDS011;32098;49.448;7.904;2022-11-20T01:48:48;12.17;;;7.10;;
46391;SDS011;32098;49.448;7.904;2022-11-20T01:51:50;10.40;;;6.30;;
46391;SDS011;32098;49.448;7.904;2022-11-20T01:54:24;10.67;;;6.83;;
46391;SDS011;32098;49.448;7.904;2022-11-20T01:56:56;12.80;;;7.00;;
46391;SDS011;32098;49.448;7.904;2022-11-20T01:59:25;10.07;;;6.60;;
46391;SDS011;32098;49.448;7.904;2022-11-20T02:01:54;11.70;;;6.90;;
46391;SDS011;32098;49.448;7.904;2022-11-20T02:04:22;11.93;;;7.07;;
46391;SDS011;32098;49.448;7.904;2022-11-20T02:06:51;10.87;;;6.57;;
46391;SDS011;32098;49.448;7.904;2022-11-20T02:09:28;8.90;;;6.40;;
46391;SDS011;32098;49.448;7.904;2022-11-20T02:11:54;11.93;;;6.43;;
46391;SDS011;32098;49.448;7.904;2022-11-20T02:14:22;9.80;;;6.47;;
46391;SDS011;32098;49.448;7.904;2022-11-20T02:16:49;11.37;;;6.70;;
46391;SDS011;32098;49.448;7.904;2022-11-20T02:19:27;10.73;;;6.63;;
46391;SDS011;32098;49.448;7.904;2022-11-20T02:22:05;12.37;;;7.57;;
46391;SDS011;32098;49.448;7.904;2022-11-20T02:24:39;12.40;;;7.67;;
46391;SDS011;32098;49.448;7.904;2022-11-20T02:27:10;13.27;;;7.23;;
46391;SDS011;32098;49.448;7.904;2022-11-20T02:29:43;10.57;;;6.80;;
46391;SDS011;32098;49.448;7.904;2022-11-20T02:32:38;14.37;;;8.30;;
46391;SDS011;32098;49.448;7.904;2022-11-20T02:37:44;11.03;;;6.83;;
46391;SDS011;32098;49.448;7.904;2022-11-20T02:40:13;12.30;;;7.13;;
46391;SDS011;32098;49.448;7.904;2022-11-20T02:42:41;13.57;;;7.10;;
46391;SDS011;32098;49.448;7.904;2022-11-20T02:45:09;10.07;;;6.53;;
46391;SDS011;32098;49.448;7.904;2022-11-20T02:47:36;10.07;;;6.60;;
46391;SDS011;32098;49.448;7.904;2022-11-20T02:50:03;10.10;;;6.37;;
46391;SDS011;32098;49.448;7.904;2022-11-20T02:52:32;11.73;;;6.40;;
46391;SDS011;32098;49.448;7.904;2022-11-20T02:54:59;11.47;;;6.87;;
46391;SDS011;32098;49.448;7.904;2022-11-20T02:57:26;10.30;;;6.10;;
46391;SDS011;32098;49.448;7.904;2022-11-20T02:59:54;9.93;;;6.43;;
46391;SDS011;32098;49.448;7.904;2022-11-20T03:02:21;12.13;;;6.77;;
46391;SDS011;32098;49.448;7.904;2022-11-20T03:04:48;9.97;;;6.60;;
46391;SDS011;32098;49.448;7.904;2022-11-20T03:07:15;11.23;;;6.60;;
46391;SDS011;32098;49.448;7.904;2022-11-20T03:09:42;10.10;;;6.40;;
46391;SDS011;32098;49.448;7.904;2022-11-20T03:12:08;10.93;;;6.50;;
46391;SDS011;32098;49.448;7.904;2022-11-20T03:14:36;9.23;;;6.33;;
46391;SDS011;32098;49.448;7.904;2022-11-20T03:17:09;9.87;;;6.17;;
46391;SDS011;32098;49.448;7.904;2022-11-20T03:19:36;8.40;;;5.87;;
46391;SDS011;32098;49.448;7.904;2022-11-20T03:22:04;9.47;;;6.27;;
46391;SDS011;32098;49.448;7.904;2022-11-20T03:24:30;9.17;;;6.03;;
46391;SDS011;32098;49.448;7.904;2022-11-20T03:26:57;9.87;;;6.33;;
46391;SDS011;32098;49.448;7.904;2022-11-20T03:29:24;9.23;;;6.10;;
46391;SDS011;32098;49.448;7.904;2022-11-20T03:31:52;10.60;;;6.47;;
46391;SDS011;32098;49.448;7.904;2022-11-20T03:34:18;21.47;;;13.57;;
46391;SDS011;32098;49.448;7.904;2022-11-20T03:36:46;19.53;;;11.27;;
46391;SDS011;32098;49.448;7.904;2022-11-20T03:39:13;8.17;;;5.60;;
46391;SDS011;32098;49.448;7.904;2022-11-20T03:41:40;7.50;;;5.37;;
46391;SDS011;32098;49.448;7.904;2022-11-20T03:44:10;10.37;;;6.23;;
46391;SDS011;32098;49.448;7.904;2022-11-20T03:46:39;9.73;;;6.73;;
46391;SDS011;32098;49.448;7.904;2022-11-20T03:49:05;10.23;;;6.17;;
46391;SDS011;32098;49.448;7.904;2022-11-20T03:51:32;9.53;;;6.50;;
46391;SDS011;32098;49.448;7.904;2022-11-20T03:54:03;8.80;;;6.20;;
46391;SDS011;32098;49.448;7.904;2022-11-20T03:56:33;9.30;;;6.07;;
46391;SDS011;32098;49.448;7.904;2022-11-20T03:59:02;9.77;;;6.60;;
46391;SDS011;32098;49.448;7.904;2022-11-20T04:01:33;8.53;;;6.10;;
46391;SDS011;32098;49.448;7.904;2022-11-20T04:04:01;9.60;;;6.07;;
46391;SDS011;32098;49.448;7.904;2022-11-20T04:06:35;9.40;;;6.17;;
46391;SDS011;32098;49.448;7.904;2022-11-20T04:09:04;8.73;;;5.67;;
46391;SDS011;32098;49.448;7.904;2022-11-20T04:11:33;10.00;;;6.70;;
46391;SDS011;32098;49.448;7.904;2022-11-20T04:14:02;9.70;;;6.23;;
46391;SDS011;32098;49.448;7.904;2022-11-20T04:16:31;10.23;;;6.63;;
46391;SDS011;32098;49.448;7.904;2022-11-20T04:19:00;10.00;;;6.43;;
46391;SDS011;32098;49.448;7.904;2022-11-20T04:21:28;10.10;;;6.80;;
46391;SDS011;32098;49.448;7.904;2022-11-20T04:23:55;9.63;;;6.60;;
46391;SDS011;32098;49.448;7.904;2022-11-20T04:26:23;8.80;;;6.13;;
46391;SDS011;32098;49.448;7.904;2022-11-20T04:28:51;9.17;;;6.27;;
46391;SDS011;32098;49.448;7.904;2022-11-20T04:31:19;8.27;;;6.07;;
46391;SDS011;32098;49.448;7.904;2022-11-20T04:33:49;8.90;;;5.93;;
46391;SDS011;32098;49.448;7.904;2022-11-20T04:36:17;13.00;;;7.50;;
46391;SDS011;32098;49.448;7.904;2022-11-20T04:38:45;9.10;;;6.00;;
46391;SDS011;32098;49.448;7.904;2022-11-20T04:41:22;9.70;;;6.33;;
46391;SDS011;32098;49.448;7.904;2022-11-20T04:43:57;11.13;;;6.97;;
46391;SDS011;32098;49.448;7.904;2022-11-20T04:46:31;8.80;;;6.60;;
46391;SDS011;32098;49.448;7.904;2022-11-20T04:49:03;10.33;;;7.13;;
46391;SDS011;32098;49.448;7.904;2022-11-20T04:51:30;9.10;;;6.33;;
46391;SDS011;32098;49.448;7.904;2022-11-20T04:53:58;11.10;;;6.83;;
46391;SDS011;32098;49.448;7.904;2022-11-20T04:56:24;10.90;;;7.27;;
46391;SDS011;32098;49.448;7.904;2022-11-20T04:58:51;9.83;;;6.87;;
46391;SDS011;32098;49.448;7.904;2022-11-20T05:01:22;10.17;;;6.67;;
46391;SDS011;32098;49.448;7.904;2022-11-20T05:03:50;9.27;;;6.20;;
46391;SDS011;32098;49.448;7.904;2022-11-20T05:06:19;8.10;;;5.70;;
46391;SDS011;32098;49.448;7.904;2022-11-20T05:08:48;7.73;;;5.87;;
46391;SDS011;32098;49.448;7.904;2022-11-20T05:11:17;8.57;;;5.90;;
46391;SDS011;32098;49.448;7.904;2022-11-20T05:13:46;12.20;;;7.00;;
46391;SDS011;32098;49.448;7.904;2022-11-20T05:16:17;8.73;;;6.07;;
46391;SDS011;32098;49.448;7.904;2022-11-20T05:18:46;8.93;;;5.90;;
46391;SDS011;32098;49.448;7.904;2022-11-20T05:21:13;8.77;;;5.97;;
46391;SDS011;32098;49.448;7.904;2022-11-20T05:23:42;9.13;;;6.00;;
46391;SDS011;32098;49.448;7.904;2022-11-20T05:26:14;9.13;;;5.73;;
46391;SDS011;32098;49.448;7.904;2022-11-20T05:28:45;9.87;;;6.67;;
46391;SDS011;32098;49.448;7.904;2022-11-20T05:31:13;10.50;;;7.20;;
46391;SDS011;32098;49.448;7.904;2022-11-20T05:33:42;11.40;;;6.87;;
46391;SDS011;32098;49.448;7.904;2022-11-20T05:36:12;12.73;;;6.73;;
46391;SDS011;32098;49.448;7.904;2022-11-20T05:38:40;10.60;;;6.37;;
46391;SDS011;32098;49.448;7.904;2022-11-20T05:41:11;8.47;;;6.43;;
46391;SDS011;32098;49.448;7.904;2022-11-20T05:43:40;9.20;;;6.50;;
46391;SDS011;32098;49.448;7.904;2022-11-20T05:46:09;12.07;;;8.63;;
46391;SDS011;32098;49.448;7.904;2022-11-20T05:48:37;11.40;;;7.00;;
46391;SDS011;32098;49.448;7.904;2022-11-20T05:51:07;10.03;;;6.70;;
46391;SDS011;32098;49.448;7.904;2022-11-20T05:53:36;9.67;;;6.20;;
46391;SDS011;32098;49.448;7.904;2022-11-20T05:56:09;9.70;;;6.37;;
46391;SDS011;32098;49.448;7.904;2022-11-20T05:58:41;11.60;;;7.60;;
46391;SDS011;32098;49.448;7.904;2022-11-20T06:01:09;14.57;;;10.77;;
46391;SDS011;32098;49.448;7.904;2022-11-20T06:03:47;18.47;;;14.70;;
46391;SDS011;32098;49.448;7.904;2022-11-20T06:06:17;17.87;;;13.83;;
46391;SDS011;32098;49.448;7.904;2022-11-20T06:08:44;18.77;;;12.73;;
46391;SDS011;32098;49.448;7.904;2022-11-20T06:11:13;16.10;;;12.20;;
46391;SDS011;32098;49.448;7.904;2022-11-20T06:13:41;12.97;;;10.03;;
46391;SDS011;32098;49.448;7.904;2022-11-20T06:16:09;12.80;;;9.80;;
46391;SDS011;32098;49.448;7.904;2022-11-20T06:18:38;12.37;;;9.50;;
46391;SDS011;32098;49.448;7.904;2022-11-20T06:21:06;12.87;;;8.37;;
46391;SDS011;32098;49.448;7.904;2022-11-20T06:23:34;8.47;;;6.37;;
46391;SDS011;32098;49.448;7.904;2022-11-20T06:26:09;8.63;;;6.53;;
46391;SDS011;32098;49.448;7.904;2022-11-20T06:28:37;7.77;;;5.47;;
46391;SDS011;32098;49.448;7.904;2022-11-20T06:31:05;6.83;;;5.07;;
46391;SDS011;32098;49.448;7.904;2022-11-20T06:33:32;6.33;;;4.20;;
46391;SDS011;32098;49.448;7.904;2022-11-20T06:36:00;5.77;;;3.90;;
46391;SDS011;32098;49.448;7.904;2022-11-20T06:38:36;4.97;;;3.60;;
46391;SDS011;32098;49.448;7.904;2022-11-20T06:41:04;5.63;;;4.17;;
46391;SDS011;32098;49.448;7.904;2022-11-20T06:43:32;6.10;;;3.87;;
46391;SDS011;32098;49.448;7.904;2022-11-20T06:45:59;7.67;;;4.33;;
46391;SDS011;32098;49.448;7.904;2022-11-20T06:48:27;8.17;;;5.00;;
46391;SDS011;32098;49.448;7.904;2022-11-20T06:50:54;8.00;;;5.50;;
46391;SDS011;32098;49.448;7.904;2022-11-20T06:53:22;6.73;;;4.67;;
46391;SDS011;32098;49.448;7.904;2022-11-20T06:55:49;5.63;;;4.93;;
46391;SDS011;32098;49.448;7.904;2022-11-20T06:58:17;6.33;;;4.50;;
46391;SDS011;32098;49.448;7.904;2022-11-20T07:00:44;5.60;;;4.10;;
46391;SDS011;32098;49.448;7.904;2022-11-20T07:03:13;5.53;;;3.53;;
46391;SDS011;32098;49.448;7.904;2022-11-20T07:05:40;5.67;;;4.50;;
46391;SDS011;32098;49.448;7.904;2022-11-20T07:08:07;7.00;;;5.40;;
46391;SDS011;32098;49.448;7.904;2022-11-20T07:10:34;7.00;;;4.30;;
46391;SDS011;32098;49.448;7.904;2022-11-20T07:13:01;5.67;;;3.70;;
46391;SDS011;32098;49.448;7.904;2022-11-20T07:15:28;5.17;;;3.60;;
46391;SDS011;32098;49.448;7.904;2022-11-20T07:17:55;3.80;;;2.70;;
46391;SDS011;32098;49.448;7.904;2022-11-20T07:20:24;6.50;;;3.83;;
46391;SDS011;32098;49.448;7.904;2022-11-20T07:22:54;5.33;;;4.73;;
46391;SDS011;32098;49.448;7.904;2022-11-20T07:28:03;6.60;;;5.43;;
46391;SDS011;32098;49.448;7.904;2022-11-20T07:30:31;6.70;;;5.23;;
46391;SDS011;32098;49.448;7.904;2022-11-20T07:32:57;7.43;;;4.93;;
46391;SDS011;32098;49.448;7.904;2022-11-20T07:35:24;7.37;;;4.77;;
46391;SDS011;32098;49.448;7.904;2022-11-20T07:37:51;6.23;;;4.20;;
46391;SDS011;32098;49.448;7.904;2022-11-20T07:40:18;5.03;;;4.07;;
46391;SDS011;32098;49.448;7.904;2022-11-20T07:42:52;5.80;;;4.37;;
46391;SDS011;32098;49.448;7.904;2022-11-20T07:45:21;7.33;;;5.03;;
46391;SDS011;32098;49.448;7.904;2022-11-20T07:47:49;6.63;;;5.00;;
46391;SDS011;32098;49.448;7.904;2022-11-20T07:50:17;6.90;;;5.10;;
46391;SDS011;32098;49.448;7.904;2022-11-20T07:52:45;7.43;;;6.03;;
46391;SDS011;32098;49.448;7.904;2022-11-20T07:55:12;9.07;;;4.50;;
46391;SDS011;32098;49.448;7.904;2022-11-20T07:57:40;6.20;;;4.13;;
46391;SDS011;32098;49.448;7.904;2022-11-20T08:00:08;4.87;;;4.33;;
46391;SDS011;32098;49.448;7.904;2022-11-20T08:02:40;5.00;;;4.50;;
46391;SDS011;32098;49.448;7.904;2022-11-20T08:05:08;6.40;;;4.43;;
46391;SDS011;32098;49.448;7.904;2022-11-20T08:07:39;5.23;;;4.40;;
46391;SDS011;32098;49.448;7.904;2022-11-20T08:10:11;4.70;;;4.20;;
46391;SDS011;32098;49.448;7.904;2022-11-20T08:12:43;4.83;;;3.83;;
46391;SDS011;32098;49.448;7.904;2022-11-20T08:15:33;5.93;;;4.13;;
46391;SDS011;32098;49.448;7.904;2022-11-20T08:18:07;5.77;;;4.40;;
46391;SDS011;32098;49.448;7.904;2022-11-20T08:21:05;6.23;;;5.00;;
46391;SDS011;32098;49.448;7.904;2022-11-20T08:23:33;8.90;;;5.40;;
46391;SDS011;32098;49.448;7.904;2022-11-20T08:26:00;6.50;;;5.37;;
46391;SDS011;32098;49.448;7.904;2022-11-20T08:28:27;7.47;;;6.07;;
46391;SDS011;32098;49.448;7.904;2022-11-20T08:30:57;8.80;;;7.03;;
46391;SDS011;32098;49.448;7.904;2022-11-20T08:33:27;8.47;;;6.43;;
46391;SDS011;32098;49.448;7.904;2022-11-20T08:35:59;11.40;;;9.10;;
46391;SDS011;32098;49.448;7.904;2022-11-20T08:38:30;10.67;;;8.40;;
46391;SDS011;32098;49.448;7.904;2022-11-20T08:41:02;14.50;;;9.37;;
46391;SDS011;32098;49.448;7.904;2022-11-20T08:43:58;9.57;;;7.23;;
46391;SDS011;32098;49.448;7.904;2022-11-20T08:46:32;8.20;;;7.03;;
46391;SDS011;32098;49.448;7.904;2022-11-20T08:49:03;8.23;;;6.67;;
46391;SDS011;32098;49.448;7.904;2022-11-20T08:51:32;13.13;;;8.50;;
46391;SDS011;32098;49.448;7.904;2022-11-20T08:54:06;7.37;;;6.03;;
46391;SDS011;32098;49.448;7.904;2022-11-20T08:56:33;9.37;;;6.83;;
46391;SDS011;32098;49.448;7.904;2022-11-20T08:59:01;11.00;;;8.70;;
46391;SDS011;32098;49.448;7.904;2022-11-20T09:01:48;10.03;;;7.53;;
46391;SDS011;32098;49.448;7.904;2022-11-20T09:04:15;11.83;;;8.17;;
46391;SDS011;32098;49.448;7.904;2022-11-20T09:06:42;12.97;;;10.07;;
46391;SDS011;32098;49.448;7.904;2022-11-20T09:09:09;13.90;;;10.70;;
46391;SDS011;32098;49.448;7.904;2022-11-20T09:11:39;16.30;;;13.10;;
46391;SDS011;32098;49.448;7.904;2022-11-20T09:14:06;13.37;;;9.20;;
46391;SDS011;32098;49.448;7.904;2022-11-20T09:16:35;7.47;;;6.67;;
46391;SDS011;32098;49.448;7.904;2022-11-20T09:19:02;6.90;;;5.57;;
46391;SDS011;32098;49.448;7.904;2022-11-20T09:21:49;5.80;;;5.20;;
46391;SDS011;32098;49.448;7.904;2022-11-20T09:24:16;10.20;;;5.77;;
46391;SDS011;32098;49.448;7.904;2022-11-20T09:26:42;6.27;;;5.47;;
46391;SDS011;32098;49.448;7.904;2022-11-20T09:29:09;9.23;;;6.53;;
46391;SDS011;32098;49.448;7.904;2022-11-20T09:31:36;6.37;;;5.00;;
46391;SDS011;32098;49.448;7.904;2022-11-20T09:34:02;7.80;;;5.37;;
46391;SDS011;32098;49.448;7.904;2022-11-20T09:36:29;6.13;;;5.20;;
46391;SDS011;32098;49.448;7.904;2022-11-20T09:38:56;8.73;;;5.10;;
46391;SDS011;32098;49.448;7.904;2022-11-20T09:47:01;8.37;;;4.97;;
46391;SDS011;32098;49.448;7.904;2022-11-20T09:55:37;7.50;;;4.80;;
46391;SDS011;32098;49.448;7.904;2022-11-20T09:58:13;6.13;;;5.43;;
46391;SDS011;32098;49.448;7.904;2022-11-20T10:00:56;10.30;;;5.63;;
46391;SDS011;32098;49.448;7.904;2022-11-20T10:04:15;9.40;;;6.60;;
46391;SDS011;32098;49.448;7.904;2022-11-20T10:06:31;5.97;;;4.43;;
46391;SDS011;32098;49.448;7.904;2022-11-20T10:11:51;6.33;;;5.40;;
46391;SDS011;32098;49.448;7.904;2022-11-20T10:17:34;6.23;;;4.10;;
46391;SDS011;32098;49.448;7.904;2022-11-20T10:26:13;7.43;;;5.70;;
46391;SDS011;32098;49.448;7.904;2022-11-20T10:31:46;15.30;;;9.63;;
46391;SDS011;32098;49.448;7.904;2022-11-20T10:34:20;9.57;;;6.70;;
46391;SDS011;32098;49.448;7.904;2022-11-20T10:36:56;3.73;;;3.33;;
46391;SDS011;32098;49.448;7.904;2022-11-20T10:42:04;4.77;;;2.50;;
46391;SDS011;32098;49.448;7.904;2022-11-20T10:44:37;6.57;;;3.43;;
46391;SDS011;32098;49.448;7.904;2022-11-20T10:47:31;2.43;;;2.20;;
46391;SDS011;32098;49.448;7.904;2022-11-20T10:50:01;5.03;;;3.13;;
46391;SDS011;32098;49.448;7.904;2022-11-20T10:52:34;2.73;;;2.53;;
46391;SDS011;32098;49.448;7.904;2022-11-20T10:58:13;4.30;;;3.30;;
46391;SDS011;32098;49.448;7.904;2022-11-20T11:00:45;7.20;;;4.37;;
46391;SDS011;32098;49.448;7.904;2022-11-20T11:03:25;4.27;;;3.20;;
46391;SDS011;32098;49.448;7.904;2022-11-20T11:05:57;3.90;;;2.60;;
46391;SDS011;32098;49.448;7.904;2022-11-20T11:08:35;7.10;;;3.57;;
46391;SDS011;32098;49.448;7.904;2022-11-20T11:13:49;13.87;;;7.50;;
46391;SDS011;32098;49.448;7.904;2022-11-20T11:16:24;6.70;;;4.03;;
46391;SDS011;32098;49.448;7.904;2022-11-20T11:19:02;11.57;;;6.17;;
46391;SDS011;32098;49.448;7.904;2022-11-20T11:21:30;7.90;;;4.80;;
46391;SDS011;32098;49.448;7.904;2022-11-20T11:24:00;4.63;;;2.57;;
46391;SDS011;32098;49.448;7.904;2022-11-20T11:26:55;5.73;;;2.20;;
46391;SDS011;32098;49.448;7.904;2022-11-20T11:29:24;4.60;;;2.43;;
46391;SDS011;32098;49.448;7.904;2022-11-20T11:32:02;4.13;;;3.07;;
46391;SDS011;32098;49.448;7.904;2022-11-20T11:35:01;2.50;;;1.93;;
46391;SDS011;32098;49.448;7.904;2022-11-20T11:38:02;5.23;;;2.13;;
46391;SDS011;32098;49.448;7.904;2022-11-20T11:40:32;11.33;;;4.90;;
46391;SDS011;32098;49.448;7.904;2022-11-20T11:43:05;6.10;;;2.10;;
46391;SDS011;32098;49.448;7.904;2022-11-20T11:45:53;2.80;;;1.97;;
46391;SDS011;32098;49.448;7.904;2022-11-20T11:48:24;3.80;;;2.30;;
46391;SDS011;32098;49.448;7.904;2022-11-20T11:50:53;5.80;;;2.37;;
46391;SDS011;32098;49.448;7.904;2022-11-20T11:53:21;3.03;;;1.80;;
46391;SDS011;32098;49.448;7.904;2022-11-20T11:56:08;5.03;;;2.37;;
46391;SDS011;32098;49.448;7.904;2022-11-20T11:58:47;3.87;;;2.10;;
46391;SDS011;32098;49.448;7.904;2022-11-20T12:04:17;5.07;;;1.90;;
46391;SDS011;32098;49.448;7.904;2022-11-20T12:07:31;5.10;;;2.00;;
46391;SDS011;32098;49.448;7.904;2022-11-20T12:10:15;9.07;;;3.30;;
46391;SDS011;32098;49.448;7.904;2022-11-20T12:13:00;6.60;;;4.10;;
46391;SDS011;32098;49.448;7.904;2022-11-20T12:15:31;4.87;;;3.00;;
46391;SDS011;32098;49.448;7.904;2022-11-20T12:18:00;7.03;;;4.40;;
46391;SDS011;32098;49.448;7.904;2022-11-20T12:20:35;7.27;;;3.10;;
46391;SDS011;32098;49.448;7.904;2022-11-20T12:23:36;7.00;;;3.03;;
46391;SDS011;32098;49.448;7.904;2022-11-20T12:29:36;6.60;;;3.57;;
46391;SDS011;32098;49.448;7.904;2022-11-20T12:32:26;5.37;;;3.33;;
46391;SDS011;32098;49.448;7.904;2022-11-20T12:35:25;5.60;;;2.47;;
46391;SDS011;32098;49.448;7.904;2022-11-20T12:38:14;7.93;;;2.40;;
46391;SDS011;32098;49.448;7.904;2022-11-20T12:44:16;3.67;;;1.90;;
46391;SDS011;32098;49.448;7.904;2022-11-20T12:47:23;4.80;;;2.40;;
46391;SDS011;32098;49.448;7.904;2022-11-20T12:56:19;5.20;;;2.57;;
46391;SDS011;32098;49.448;7.904;2022-11-20T12:58:54;7.47;;;2.00;;
46391;SDS011;32098;49.448;7.904;2022-11-20T13:01:37;6.73;;;2.80;;
46391;SDS011;32098;49.448;7.904;2022-11-20T13:07:00;5.37;;;1.97;;
46391;SDS011;32098;49.448;7.904;2022-11-20T13:09:28;5.17;;;1.90;;
46391;SDS011;32098;49.448;7.904;2022-11-20T13:12:10;4.70;;;2.37;;
46391;SDS011;32098;49.448;7.904;2022-11-20T13:14:47;3.43;;;1.50;;
46391;SDS011;32098;49.448;7.904;2022-11-20T13:19:50;6.53;;;2.03;;
46391;SDS011;32098;49.448;7.904;2022-11-20T13:22:24;4.17;;;2.00;;
46391;SDS011;32098;49.448;7.904;2022-11-20T13:24:52;5.10;;;1.63;;
46391;SDS011;32098;49.448;7.904;2022-11-20T13:27:22;3.00;;;1.60;;
46391;SDS011;32098;49.448;7.904;2022-11-20T13:35:33;5.70;;;1.90;;
46391;SDS011;32098;49.448;7.904;2022-11-20T13:38:06;6.07;;;2.17;;
46391;SDS011;32098;49.448;7.904;2022-11-20T13:45:56;2.33;;;1.57;;
46391;SDS011;32098;49.448;7.904;2022-11-20T13:48:48;4.53;;;1.80;;
46391;SDS011;32098;49.448;7.904;2022-11-20T14:02:14;3.27;;;1.30;;
46391;SDS011;32098;49.448;7.904;2022-11-20T14:04:47;5.50;;;1.60;;
46391;SDS011;32098;49.448;7.904;2022-11-20T14:07:16;2.27;;;1.43;;
46391;SDS011;32098;49.448;7.904;2022-11-20T14:09:53;2.40;;;1.77;;
46391;SDS011;32098;49.448;7.904;2022-11-20T14:12:28;5.17;;;2.90;;
46391;SDS011;32098;49.448;7.904;2022-11-20T14:14:57;3.57;;;1.63;;
46391;SDS011;32098;49.448;7.904;2022-11-20T14:17:32;6.23;;;2.20;;
46391;SDS011;32098;49.448;7.904;2022-11-20T14:20:07;2.93;;;1.83;;
46391;SDS011;32098;49.448;7.904;2022-11-20T14:22:58;5.43;;;2.90;;
46391;SDS011;32098;49.448;7.904;2022-11-20T14:26:20;6.27;;;4.27;;
46391;SDS011;32098;49.448;7.904;2022-11-20T14:33:59;4.50;;;1.80;;
46391;SDS011;32098;49.448;7.904;2022-11-20T14:37:24;3.40;;;1.53;;
46391;SDS011;32098;49.448;7.904;2022-11-20T14:39:56;2.20;;;1.40;;
46391;SDS011;32098;49.448;7.904;2022-11-20T14:42:26;3.63;;;2.50;;
46391;SDS011;32098;49.448;7.904;2022-11-20T14:44:58;6.27;;;2.13;;
46391;SDS011;32098;49.448;7.904;2022-11-20T14:47:29;2.33;;;1.20;;
46391;SDS011;32098;49.448;7.904;2022-11-20T14:49:58;2.30;;;1.63;;
46391;SDS011;32098;49.448;7.904;2022-11-20T14:52:34;2.43;;;1.03;;
46391;SDS011;32098;49.448;7.904;2022-11-20T14:55:01;2.83;;;1.40;;
46391;SDS011;32098;49.448;7.904;2022-11-20T14:57:30;7.20;;;3.03;;
46391;SDS011;32098;49.448;7.904;2022-11-20T15:02:44;9.33;;;4.73;;
46391;SDS011;32098;49.448;7.904;2022-11-20T15:05:12;6.20;;;3.50;;
46391;SDS011;32098;49.448;7.904;2022-11-20T15:07:43;5.47;;;3.60;;
46391;SDS011;32098;49.448;7.904;2022-11-20T15:13:19;8.87;;;5.87;;
46391;SDS011;32098;49.448;7.904;2022-11-20T15:18:18;5.00;;;4.30;;
46391;SDS011;32098;49.448;7.904;2022-11-20T15:20:50;4.73;;;1.83;;
46391;SDS011;32098;49.448;7.904;2022-11-20T15:23:18;3.33;;;2.00;;
46391;SDS011;32098;49.448;7.904;2022-11-20T15:25:46;5.23;;;2.40;;
46391;SDS011;32098;49.448;7.904;2022-11-20T15:28:16;6.23;;;2.20;;
46391;SDS011;32098;49.448;7.904;2022-11-20T15:30:46;4.07;;;2.17;;
46391;SDS011;32098;49.448;7.904;2022-11-20T15:33:17;7.43;;;3.90;;
46391;SDS011;32098;49.448;7.904;2022-11-20T15:35:58;9.67;;;5.17;;
46391;SDS011;32098;49.448;7.904;2022-11-20T15:38:41;8.77;;;2.50;;
46391;SDS011;32098;49.448;7.904;2022-11-20T15:41:08;4.20;;;2.10;;
46391;SDS011;32098;49.448;7.904;2022-11-20T15:43:36;4.20;;;2.20;;
46391;SDS011;32098;49.448;7.904;2022-11-20T15:46:04;4.33;;;2.00;;
46391;SDS011;32098;49.448;7.904;2022-11-20T15:48:35;3.00;;;2.20;;
46391;SDS011;32098;49.448;7.904;2022-11-20T15:53:38;4.07;;;2.83;;
46391;SDS011;32098;49.448;7.904;2022-11-20T15:56:12;4.67;;;2.83;;
46391;SDS011;32098;49.448;7.904;2022-11-20T15:58:41;6.17;;;3.30;;
46391;SDS011;32098;49.448;7.904;2022-11-20T16:01:12;5.83;;;2.50;;
46391;SDS011;32098;49.448;7.904;2022-11-20T16:03:42;7.67;;;3.90;;
46391;SDS011;32098;49.448;7.904;2022-11-20T16:06:12;4.00;;;2.20;;
46391;SDS011;32098;49.448;7.904;2022-11-20T16:08:39;5.00;;;2.27;;
46391;SDS011;32098;49.448;7.904;2022-11-20T16:11:27;6.03;;;1.97;;
46391;SDS011;32098;49.448;7.904;2022-11-20T16:13:53;4.03;;;2.40;;
46391;SDS011;32098;49.448;7.904;2022-11-20T16:16:39;4.77;;;2.47;;
46391;SDS011;32098;49.448;7.904;2022-11-20T16:19:11;7.20;;;3.27;;
46391;SDS011;32098;49.448;7.904;2022-11-20T16:21:39;5.30;;;2.20;;
46391;SDS011;32098;49.448;7.904;2022-11-20T16:24:08;5.37;;;2.23;;
46391;SDS011;32098;49.448;7.904;2022-11-20T16:26:38;6.33;;;3.53;;
46391;SDS011;32098;49.448;7.904;2022-11-20T16:29:05;7.93;;;2.93;;
46391;SDS011;32098;49.448;7.904;2022-11-20T16:31:47;4.00;;;2.40;;
46391;SDS011;32098;49.448;7.904;2022-11-20T16:34:15;5.93;;;2.47;;
46391;SDS011;32098;49.448;7.904;2022-11-20T16:36:43;4.33;;;2.77;;
46391;SDS011;32098;49.448;7.904;2022-11-20T16:39:11;5.53;;;3.20;;
46391;SDS011;32098;49.448;7.904;2022-11-20T16:41:38;4.07;;;2.87;;
46391;SDS011;32098;49.448;7.904;2022-11-20T16:44:09;6.50;;;3.30;;
46391;SDS011;32098;49.448;7.904;2022-11-20T16:46:37;5.13;;;2.20;;
46391;SDS011;32098;49.448;7.904;2022-11-20T16:49:06;6.23;;;3.50;;
46391;SDS011;32098;49.448;7.904;2022-11-20T16:51:37;7.97;;;3.60;;